sensor_id;sensor_type;location;lat;lon;timestamp;temperature;humidity
47805;DHT22;33568;45.286;9.900;2022-10-16T00:00:57;21.10;88.20
47805;DHT22;33568;45.286;9.900;2022-10-16T00:03:23;21.00;88.00
47805;DHT22;33568;45.286;9.900;2022-10-16T00:05:50;21.10;88.10
47805;DHT22;33568;45.286;9.900;2022-10-16T00:08:16;21.10;88.10
47805;DHT22;33568;45.286;9.900;2022-10-16T00:10:43;21.10;88.20
47805;DHT22;33568;45.286;9.900;2022-10-16T00:13:09;21.10;88.00
47805;DHT22;33568;45.286;9.900;2022-10-16T00:15:36;21.10;88.10
47805;DHT22;33568;45.286;9.900;2022-10-16T00:18:04;21.00;88.40
47805;DHT22;33568;45.286;9.900;2022-10-16T00:20:33;21.10;88.20
47805;DHT22;33568;45.286;9.900;2022-10-16T00:23:19;21.00;88.10
47805;DHT22;33568;45.286;9.900;2022-10-16T00:25:57;21.00;88.10
47805;DHT22;33568;45.286;9.900;2022-10-16T00:28:25;21.00;88.10
47805;DHT22;33568;45.286;9.900;2022-10-16T00:30:51;21.00;88.90
47805;DHT22;33568;45.286;9.900;2022-10-16T00:33:17;20.90;88.40
47805;DHT22;33568;45.286;9.900;2022-10-16T00:35:44;20.90;88.40
47805;DHT22;33568;45.286;9.900;2022-10-16T00:38:11;21.00;89.20
47805;DHT22;33568;45.286;9.900;2022-10-16T00:40:37;21.00;88.60
47805;DHT22;33568;45.286;9.900;2022-10-16T00:43:13;21.00;88.60
47805;DHT22;33568;45.286;9.900;2022-10-16T00:45:41;21.00;88.50
47805;DHT22;33568;45.286;9.900;2022-10-16T00:48:11;21.00;88.60
47805;DHT22;33568;45.286;9.900;2022-10-16T00:50:39;21.00;88.70
47805;DHT22;33568;45.286;9.900;2022-10-16T00:53:10;21.00;88.60
47805;DHT22;33568;45.286;9.900;2022-10-16T00:55:37;21.00;88.60
47805;DHT22;33568;45.286;9.900;2022-10-16T00:58:03;21.00;88.70
47805;DHT22;33568;45.286;9.900;2022-10-16T01:00:30;21.00;88.70
47805;DHT22;33568;45.286;9.900;2022-10-16T01:02:57;21.00;88.70
47805;DHT22;33568;45.286;9.900;2022-10-16T01:05:33;20.90;89.00
47805;DHT22;33568;45.286;9.900;2022-10-16T01:08:18;20.90;88.70
47805;DHT22;33568;45.286;9.900;2022-10-16T01:13:32;20.90;88.70
47805;DHT22;33568;45.286;9.900;2022-10-16T01:16:11;20.90;88.90
47805;DHT22;33568;45.286;9.900;2022-10-16T01:19:09;20.90;88.80
47805;DHT22;33568;45.286;9.900;2022-10-16T01:21:43;20.90;88.80
47805;DHT22;33568;45.286;9.900;2022-10-16T01:40:23;20.80;89.10
47805;DHT22;33568;45.286;9.900;2022-10-16T01:43:13;20.80;89.10
47805;DHT22;33568;45.286;9.900;2022-10-16T01:45:41;20.70;88.80
47805;DHT22;33568;45.286;9.900;2022-10-16T01:48:12;20.70;89.40
47805;DHT22;33568;45.286;9.900;2022-10-16T01:50:41;20.70;89.60
47805;DHT22;33568;45.286;9.900;2022-10-16T01:53:12;20.70;89.70
47805;DHT22;33568;45.286;9.900;2022-10-16T01:55:43;20.70;89.80
47805;DHT22;33568;45.286;9.900;2022-10-16T01:58:13;20.70;90.00
47805;DHT22;33568;45.286;9.900;2022-10-16T02:00:43;20.60;89.90
47805;DHT22;33568;45.286;9.900;2022-10-16T02:03:11;20.60;90.00
47805;DHT22;33568;45.286;9.900;2022-10-16T02:08:05;20.60;90.10
47805;DHT22;33568;45.286;9.900;2022-10-16T02:10:31;20.60;90.00
47805;DHT22;33568;45.286;9.900;2022-10-16T02:13:14;20.40;90.20
47805;DHT22;33568;45.286;9.900;2022-10-16T02:15:42;20.50;90.10
47805;DHT22;33568;45.286;9.900;2022-10-16T02:18:08;20.50;90.20
47805;DHT22;33568;45.286;9.900;2022-10-16T02:20:47;20.40;90.40
47805;DHT22;33568;45.286;9.900;2022-10-16T02:23:28;20.40;90.20
47805;DHT22;33568;45.286;9.900;2022-10-16T02:25:56;20.40;90.20
47805;DHT22;33568;45.286;9.900;2022-10-16T02:28:28;20.40;90.20
47805;DHT22;33568;45.286;9.900;2022-10-16T02:31:03;20.40;90.30
47805;DHT22;33568;45.286;9.900;2022-10-16T02:33:32;20.40;90.30
47805;DHT22;33568;45.286;9.900;2022-10-16T02:35:59;20.40;90.30
47805;DHT22;33568;45.286;9.900;2022-10-16T02:38:27;20.40;90.30
47805;DHT22;33568;45.286;9.900;2022-10-16T02:40:54;20.40;90.40
47805;DHT22;33568;45.286;9.900;2022-10-16T02:43:21;20.40;90.40
47805;DHT22;33568;45.286;9.900;2022-10-16T02:45:47;20.40;90.40
47805;DHT22;33568;45.286;9.900;2022-10-16T02:48:13;20.30;90.50
47805;DHT22;33568;45.286;9.900;2022-10-16T02:50:40;20.30;90.40
47805;DHT22;33568;45.286;9.900;2022-10-16T02:53:07;20.40;90.30
47805;DHT22;33568;45.286;9.900;2022-10-16T02:55:33;20.30;90.50
47805;DHT22;33568;45.286;9.900;2022-10-16T02:57:59;20.30;90.40
47805;DHT22;33568;45.286;9.900;2022-10-16T03:00:26;20.30;90.40
47805;DHT22;33568;45.286;9.900;2022-10-16T03:02:52;20.20;90.70
47805;DHT22;33568;45.286;9.900;2022-10-16T03:05:18;20.30;90.50
47805;DHT22;33568;45.286;9.900;2022-10-16T03:07:45;20.30;90.50
47805;DHT22;33568;45.286;9.900;2022-10-16T03:10:11;20.20;90.50
47805;DHT22;33568;45.286;9.900;2022-10-16T03:12:38;20.30;90.70
47805;DHT22;33568;45.286;9.900;2022-10-16T03:15:04;20.20;90.50
47805;DHT22;33568;45.286;9.900;2022-10-16T03:17:32;20.30;90.50
47805;DHT22;33568;45.286;9.900;2022-10-16T03:19:58;20.30;90.50
47805;DHT22;33568;45.286;9.900;2022-10-16T03:22:24;20.30;90.50
47805;DHT22;33568;45.286;9.900;2022-10-16T03:24:51;20.20;90.80
47805;DHT22;33568;45.286;9.900;2022-10-16T03:27:17;20.30;90.60
47805;DHT22;33568;45.286;9.900;2022-10-16T03:29:43;20.30;90.80
47805;DHT22;33568;45.286;9.900;2022-10-16T03:32:10;20.20;90.70
47805;DHT22;33568;45.286;9.900;2022-10-16T03:34:36;20.30;90.50
47805;DHT22;33568;45.286;9.900;2022-10-16T03:37:03;20.20;90.70
47805;DHT22;33568;45.286;9.900;2022-10-16T03:39:29;20.30;90.50
47805;DHT22;33568;45.286;9.900;2022-10-16T03:41:55;20.30;90.50
47805;DHT22;33568;45.286;9.900;2022-10-16T03:44:22;20.20;90.50
47805;DHT22;33568;45.286;9.900;2022-10-16T03:46:48;20.20;90.70
47805;DHT22;33568;45.286;9.900;2022-10-16T03:49:14;20.20;90.60
47805;DHT22;33568;45.286;9.900;2022-10-16T03:51:41;20.20;90.70
47805;DHT22;33568;45.286;9.900;2022-10-16T03:54:07;20.30;90.70
47805;DHT22;33568;45.286;9.900;2022-10-16T03:56:33;20.10;90.90
47805;DHT22;33568;45.286;9.900;2022-10-16T03:59:00;20.20;90.80
47805;DHT22;33568;45.286;9.900;2022-10-16T04:01:26;20.10;90.80
47805;DHT22;33568;45.286;9.900;2022-10-16T04:03:52;20.20;90.80
47805;DHT22;33568;45.286;9.900;2022-10-16T04:06:18;20.10;90.90
47805;DHT22;33568;45.286;9.900;2022-10-16T04:08:45;20.20;90.80
47805;DHT22;33568;45.286;9.900;2022-10-16T04:11:11;20.10;91.00
47805;DHT22;33568;45.286;9.900;2022-10-16T04:13:37;20.20;90.90
47805;DHT22;33568;45.286;9.900;2022-10-16T04:16:04;20.20;90.80
47805;DHT22;33568;45.286;9.900;2022-10-16T04:18:30;20.20;90.80
47805;DHT22;33568;45.286;9.900;2022-10-16T04:21:05;20.20;90.80
47805;DHT22;33568;45.286;9.900;2022-10-16T04:23:32;20.20;90.70
47805;DHT22;33568;45.286;9.900;2022-10-16T04:25:58;20.20;90.70
47805;DHT22;33568;45.286;9.900;2022-10-16T04:28:25;20.10;90.80
47805;DHT22;33568;45.286;9.900;2022-10-16T04:30:51;20.10;90.90
47805;DHT22;33568;45.286;9.900;2022-10-16T04:33:17;20.10;91.10
47805;DHT22;33568;45.286;9.900;2022-10-16T04:35:44;20.20;90.90
47805;DHT22;33568;45.286;9.900;2022-10-16T04:38:10;20.00;91.10
47805;DHT22;33568;45.286;9.900;2022-10-16T04:40:36;20.10;90.90
47805;DHT22;33568;45.286;9.900;2022-10-16T04:43:03;20.00;91.10
47805;DHT22;33568;45.286;9.900;2022-10-16T04:45:30;20.10;90.90
47805;DHT22;33568;45.286;9.900;2022-10-16T04:47:57;20.20;91.00
47805;DHT22;33568;45.286;9.900;2022-10-16T04:50:23;20.10;91.50
47805;DHT22;33568;45.286;9.900;2022-10-16T04:53:05;20.20;91.00
47805;DHT22;33568;45.286;9.900;2022-10-16T04:55:32;20.20;91.00
47805;DHT22;33568;45.286;9.900;2022-10-16T04:57:58;20.30;90.90
47805;DHT22;33568;45.286;9.900;2022-10-16T05:00:25;20.20;90.90
47805;DHT22;33568;45.286;9.900;2022-10-16T05:02:51;20.20;90.90
47805;DHT22;33568;45.286;9.900;2022-10-16T05:05:17;20.20;91.10
47805;DHT22;33568;45.286;9.900;2022-10-16T05:07:48;20.20;90.90
47805;DHT22;33568;45.286;9.900;2022-10-16T05:10:18;20.20;90.80
47805;DHT22;33568;45.286;9.900;2022-10-16T05:12:45;20.20;90.80
47805;DHT22;33568;45.286;9.900;2022-10-16T05:15:12;20.20;90.90
47805;DHT22;33568;45.286;9.900;2022-10-16T05:17:38;20.20;90.90
47805;DHT22;33568;45.286;9.900;2022-10-16T05:20:05;20.20;90.90
47805;DHT22;33568;45.286;9.900;2022-10-16T05:22:31;20.10;91.20
47805;DHT22;33568;45.286;9.900;2022-10-16T05:24:57;20.20;91.00
47805;DHT22;33568;45.286;9.900;2022-10-16T05:27:24;20.10;91.10
47805;DHT22;33568;45.286;9.900;2022-10-16T05:29:50;20.20;90.90
47805;DHT22;33568;45.286;9.900;2022-10-16T05:32:16;20.20;90.80
47805;DHT22;33568;45.286;9.900;2022-10-16T05:34:43;20.10;91.00
47805;DHT22;33568;45.286;9.900;2022-10-16T05:37:11;20.20;90.90
47805;DHT22;33568;45.286;9.900;2022-10-16T05:39:38;20.20;90.80
47805;DHT22;33568;45.286;9.900;2022-10-16T05:42:05;20.20;90.80
47805;DHT22;33568;45.286;9.900;2022-10-16T05:44:31;20.10;90.90
47805;DHT22;33568;45.286;9.900;2022-10-16T05:46:57;20.10;91.00
47805;DHT22;33568;45.286;9.900;2022-10-16T05:49:24;20.00;91.20
47805;DHT22;33568;45.286;9.900;2022-10-16T05:51:50;20.10;91.00
47805;DHT22;33568;45.286;9.900;2022-10-16T05:54:17;20.20;91.00
47805;DHT22;33568;45.286;9.900;2022-10-16T05:56:43;20.20;90.90
47805;DHT22;33568;45.286;9.900;2022-10-16T05:59:09;20.20;90.90
47805;DHT22;33568;45.286;9.900;2022-10-16T06:01:36;20.10;91.20
47805;DHT22;33568;45.286;9.900;2022-10-16T06:04:02;20.20;91.00
47805;DHT22;33568;45.286;9.900;2022-10-16T06:06:29;20.20;91.00
47805;DHT22;33568;45.286;9.900;2022-10-16T06:08:57;20.20;91.00
47805;DHT22;33568;45.286;9.900;2022-10-16T06:11:27;20.20;91.00
47805;DHT22;33568;45.286;9.900;2022-10-16T06:13:56;20.20;91.10
47805;DHT22;33568;45.286;9.900;2022-10-16T06:16:23;20.20;91.10
47805;DHT22;33568;45.286;9.900;2022-10-16T06:18:54;20.20;91.00
47805;DHT22;33568;45.286;9.900;2022-10-16T06:21:24;20.30;91.00
47805;DHT22;33568;45.286;9.900;2022-10-16T06:23:51;20.30;90.90
47805;DHT22;33568;45.286;9.900;2022-10-16T06:26:21;20.30;90.80
47805;DHT22;33568;45.286;9.900;2022-10-16T06:28:48;20.40;90.90
47805;DHT22;33568;45.286;9.900;2022-10-16T06:31:15;20.40;90.90
47805;DHT22;33568;45.286;9.900;2022-10-16T06:33:42;20.40;90.80
47805;DHT22;33568;45.286;9.900;2022-10-16T06:36:14;20.40;90.70
47805;DHT22;33568;45.286;9.900;2022-10-16T06:38:41;20.40;90.70
47805;DHT22;33568;45.286;9.900;2022-10-16T06:41:13;20.40;90.70
47805;DHT22;33568;45.286;9.900;2022-10-16T06:43:40;20.40;91.00
47805;DHT22;33568;45.286;9.900;2022-10-16T06:46:09;20.40;90.80
47805;DHT22;33568;45.286;9.900;2022-10-16T06:48:36;20.40;90.80
47805;DHT22;33568;45.286;9.900;2022-10-16T06:53:32;20.40;90.90
47805;DHT22;33568;45.286;9.900;2022-10-16T06:56:10;20.40;91.10
47805;DHT22;33568;45.286;9.900;2022-10-16T06:58:37;20.50;90.80
47805;DHT22;33568;45.286;9.900;2022-10-16T07:01:04;20.50;90.80
47805;DHT22;33568;45.286;9.900;2022-10-16T07:03:32;20.50;90.60
47805;DHT22;33568;45.286;9.900;2022-10-16T07:06:02;20.60;90.70
47805;DHT22;33568;45.286;9.900;2022-10-16T07:08:34;20.50;90.70
47805;DHT22;33568;45.286;9.900;2022-10-16T07:11:03;20.50;90.80
47805;DHT22;33568;45.286;9.900;2022-10-16T07:13:33;20.50;90.90
47805;DHT22;33568;45.286;9.900;2022-10-16T07:16:15;20.50;91.00
47805;DHT22;33568;45.286;9.900;2022-10-16T07:18:42;20.50;91.10
47805;DHT22;33568;45.286;9.900;2022-10-16T07:21:21;20.50;91.10
47805;DHT22;33568;45.286;9.900;2022-10-16T07:23:59;20.60;91.00
47805;DHT22;33568;45.286;9.900;2022-10-16T07:26:26;20.70;91.00
47805;DHT22;33568;45.286;9.900;2022-10-16T07:28:53;20.70;90.90
47805;DHT22;33568;45.286;9.900;2022-10-16T07:31:20;20.80;90.80
47805;DHT22;33568;45.286;9.900;2022-10-16T07:33:47;20.80;90.90
47805;DHT22;33568;45.286;9.900;2022-10-16T07:36:18;20.90;90.80
47805;DHT22;33568;45.286;9.900;2022-10-16T07:38:46;20.90;90.80
47805;DHT22;33568;45.286;9.900;2022-10-16T07:41:18;21.00;90.70
47805;DHT22;33568;45.286;9.900;2022-10-16T07:43:46;21.00;90.60
47805;DHT22;33568;45.286;9.900;2022-10-16T07:46:13;21.00;90.70
47805;DHT22;33568;45.286;9.900;2022-10-16T07:48:40;21.00;90.80
47805;DHT22;33568;45.286;9.900;2022-10-16T07:51:07;20.90;90.80
47805;DHT22;33568;45.286;9.900;2022-10-16T07:53:34;20.90;91.00
47805;DHT22;33568;45.286;9.900;2022-10-16T07:56:01;20.90;90.90
47805;DHT22;33568;45.286;9.900;2022-10-16T07:58:28;21.00;90.80
47805;DHT22;33568;45.286;9.900;2022-10-16T08:00:56;21.10;90.70
47805;DHT22;33568;45.286;9.900;2022-10-16T08:03:25;21.20;90.70
47805;DHT22;33568;45.286;9.900;2022-10-16T08:05:52;21.30;90.70
47805;DHT22;33568;45.286;9.900;2022-10-16T08:08:19;21.40;90.60
47805;DHT22;33568;45.286;9.900;2022-10-16T08:10:45;21.50;90.60
47805;DHT22;33568;45.286;9.900;2022-10-16T08:13:12;21.60;90.50
47805;DHT22;33568;45.286;9.900;2022-10-16T08:15:42;21.60;90.30
47805;DHT22;33568;45.286;9.900;2022-10-16T08:18:09;21.70;90.30
47805;DHT22;33568;45.286;9.900;2022-10-16T08:20:36;21.80;90.20
47805;DHT22;33568;45.286;9.900;2022-10-16T08:23:03;21.90;90.20
47805;DHT22;33568;45.286;9.900;2022-10-16T08:25:29;21.90;90.10
47805;DHT22;33568;45.286;9.900;2022-10-16T08:27:56;22.00;90.10
47805;DHT22;33568;45.286;9.900;2022-10-16T08:30:23;22.10;89.90
47805;DHT22;33568;45.286;9.900;2022-10-16T08:32:50;22.10;89.60
47805;DHT22;33568;45.286;9.900;2022-10-16T08:35:16;22.30;89.20
47805;DHT22;33568;45.286;9.900;2022-10-16T08:37:43;22.40;88.50
47805;DHT22;33568;45.286;9.900;2022-10-16T08:40:17;22.50;88.00
47805;DHT22;33568;45.286;9.900;2022-10-16T08:48:30;23.20;86.30
47805;DHT22;33568;45.286;9.900;2022-10-16T08:51:01;23.90;84.20
47805;DHT22;33568;45.286;9.900;2022-10-16T08:53:35;24.40;84.10
47805;DHT22;33568;45.286;9.900;2022-10-16T08:56:02;24.70;82.50
47805;DHT22;33568;45.286;9.900;2022-10-16T08:58:30;25.00;81.30
47805;DHT22;33568;45.286;9.900;2022-10-16T09:01:01;25.40;80.10
47805;DHT22;33568;45.286;9.900;2022-10-16T09:08:47;26.30;76.60
47805;DHT22;33568;45.286;9.900;2022-10-16T09:19:43;27.30;72.80
47805;DHT22;33568;45.286;9.900;2022-10-16T09:22:15;27.50;73.00
47805;DHT22;33568;45.286;9.900;2022-10-16T09:24:42;27.40;71.90
47805;DHT22;33568;45.286;9.900;2022-10-16T09:27:13;27.40;72.20
47805;DHT22;33568;45.286;9.900;2022-10-16T09:29:40;27.70;71.10
47805;DHT22;33568;45.286;9.900;2022-10-16T09:32:11;28.00;70.70
47805;DHT22;33568;45.286;9.900;2022-10-16T09:34:43;28.30;69.30
47805;DHT22;33568;45.286;9.900;2022-10-16T09:37:17;28.30;68.50
47805;DHT22;33568;45.286;9.900;2022-10-16T09:39:52;28.50;68.40
47805;DHT22;33568;45.286;9.900;2022-10-16T09:42:34;28.80;67.50
47805;DHT22;33568;45.286;9.900;2022-10-16T09:45:01;28.90;65.90
47805;DHT22;33568;45.286;9.900;2022-10-16T09:47:30;29.20;66.80
47805;DHT22;33568;45.286;9.900;2022-10-16T09:50:02;29.40;66.20
47805;DHT22;33568;45.286;9.900;2022-10-16T09:52:32;29.40;65.20
47805;DHT22;33568;45.286;9.900;2022-10-16T09:55:13;29.40;65.20
47805;DHT22;33568;45.286;9.900;2022-10-16T09:57:53;29.50;64.70
47805;DHT22;33568;45.286;9.900;2022-10-16T10:00:21;29.30;62.90
47805;DHT22;33568;45.286;9.900;2022-10-16T10:02:47;29.20;64.60
47805;DHT22;33568;45.286;9.900;2022-10-16T10:05:25;29.40;63.80
47805;DHT22;33568;45.286;9.900;2022-10-16T10:08:00;29.50;62.80
47805;DHT22;33568;45.286;9.900;2022-10-16T10:10:29;29.90;63.40
47805;DHT22;33568;45.286;9.900;2022-10-16T10:12:56;30.00;62.30
47805;DHT22;33568;45.286;9.900;2022-10-16T10:15:23;30.00;62.00
47805;DHT22;33568;45.286;9.900;2022-10-16T10:17:55;30.30;62.00
47805;DHT22;33568;45.286;9.900;2022-10-16T10:22:55;30.20;60.90
47805;DHT22;33568;45.286;9.900;2022-10-16T10:28:03;30.30;60.00
47805;DHT22;33568;45.286;9.900;2022-10-16T10:33:59;30.60;58.80
47805;DHT22;33568;45.286;9.900;2022-10-16T10:36:40;30.90;58.70
47805;DHT22;33568;45.286;9.900;2022-10-16T10:39:40;31.10;58.90
47805;DHT22;33568;45.286;9.900;2022-10-16T10:42:22;31.30;57.30
47805;DHT22;33568;45.286;9.900;2022-10-16T10:45:17;31.60;57.90
47805;DHT22;33568;45.286;9.900;2022-10-16T10:48:12;31.70;56.80
47805;DHT22;33568;45.286;9.900;2022-10-16T10:51:01;31.90;55.80
47805;DHT22;33568;45.286;9.900;2022-10-16T10:56:16;32.10;56.70
47805;DHT22;33568;45.286;9.900;2022-10-16T10:59:05;32.20;55.30
47805;DHT22;33568;45.286;9.900;2022-10-16T11:07:27;32.40;53.30
47805;DHT22;33568;45.286;9.900;2022-10-16T11:09:59;32.30;54.00
47805;DHT22;33568;45.286;9.900;2022-10-16T11:12:35;32.50;54.50
47805;DHT22;33568;45.286;9.900;2022-10-16T11:15:18;32.70;54.70
47805;DHT22;33568;45.286;9.900;2022-10-16T11:20:26;33.00;53.40
47805;DHT22;33568;45.286;9.900;2022-10-16T11:22:58;33.10;53.90
47805;DHT22;33568;45.286;9.900;2022-10-16T11:25:27;33.20;54.20
47805;DHT22;33568;45.286;9.900;2022-10-16T11:28:06;33.20;53.80
47805;DHT22;33568;45.286;9.900;2022-10-16T11:30:44;33.10;53.20
47805;DHT22;33568;45.286;9.900;2022-10-16T11:36:00;32.10;53.00
47805;DHT22;33568;45.286;9.900;2022-10-16T11:41:28;31.10;54.20
47805;DHT22;33568;45.286;9.900;2022-10-16T11:49:46;30.20;55.80
47805;DHT22;33568;45.286;9.900;2022-10-16T11:52:26;30.60;56.00
47805;DHT22;33568;45.286;9.900;2022-10-16T11:55:40;30.70;55.40
47805;DHT22;33568;45.286;9.900;2022-10-16T11:57:53;31.00;55.50
47805;DHT22;33568;45.286;9.900;2022-10-16T12:00:24;31.10;55.10
47805;DHT22;33568;45.286;9.900;2022-10-16T12:03:03;31.20;55.20
47805;DHT22;33568;45.286;9.900;2022-10-16T12:08:26;31.50;54.20
47805;DHT22;33568;45.286;9.900;2022-10-16T12:10:53;31.60;54.80
47805;DHT22;33568;45.286;9.900;2022-10-16T12:13:39;31.70;54.70
47805;DHT22;33568;45.286;9.900;2022-10-16T12:18:43;31.80;53.70
47805;DHT22;33568;45.286;9.900;2022-10-16T12:21:11;31.60;54.00
47805;DHT22;33568;45.286;9.900;2022-10-16T12:23:50;31.40;54.20
47805;DHT22;33568;45.286;9.900;2022-10-16T12:26:32;30.80;54.10
47805;DHT22;33568;45.286;9.900;2022-10-16T12:31:56;29.30;56.30
47805;DHT22;33568;45.286;9.900;2022-10-16T12:36:52;28.20;58.70
47805;DHT22;33568;45.286;9.900;2022-10-16T12:39:24;28.00;59.60
47805;DHT22;33568;45.286;9.900;2022-10-16T12:42:05;27.90;60.00
47805;DHT22;33568;45.286;9.900;2022-10-16T12:44:34;27.80;60.50
47805;DHT22;33568;45.286;9.900;2022-10-16T12:47:02;27.70;60.50
47805;DHT22;33568;45.286;9.900;2022-10-16T12:49:30;27.60;60.70
47805;DHT22;33568;45.286;9.900;2022-10-16T12:51:56;27.40;61.10
47805;DHT22;33568;45.286;9.900;2022-10-16T12:54:27;27.30;61.50
47805;DHT22;33568;45.286;9.900;2022-10-16T13:00:36;27.10;62.60
47805;DHT22;33568;45.286;9.900;2022-10-16T13:19:42;26.50;64.30
47805;DHT22;33568;45.286;9.900;2022-10-16T13:27:57;26.70;64.50
47805;DHT22;33568;45.286;9.900;2022-10-16T13:30:27;26.80;64.20
47805;DHT22;33568;45.286;9.900;2022-10-16T13:33:10;26.80;64.50
47805;DHT22;33568;45.286;9.900;2022-10-16T13:35:56;26.70;63.80
47805;DHT22;33568;45.286;9.900;2022-10-16T13:38:28;26.60;64.10
47805;DHT22;33568;45.286;9.900;2022-10-16T13:43:31;26.50;64.20
47805;DHT22;33568;45.286;9.900;2022-10-16T13:46:01;26.50;63.90
47805;DHT22;33568;45.286;9.900;2022-10-16T13:48:29;26.50;64.10
47805;DHT22;33568;45.286;9.900;2022-10-16T13:51:17;26.50;63.80
47805;DHT22;33568;45.286;9.900;2022-10-16T13:53:44;26.40;63.20
47805;DHT22;33568;45.286;9.900;2022-10-16T13:56:16;26.40;64.20
47805;DHT22;33568;45.286;9.900;2022-10-16T13:58:43;26.40;64.10
47805;DHT22;33568;45.286;9.900;2022-10-16T14:01:24;26.40;63.90
47805;DHT22;33568;45.286;9.900;2022-10-16T14:03:52;26.40;63.80
47805;DHT22;33568;45.286;9.900;2022-10-16T14:06:22;26.50;64.30
47805;DHT22;33568;45.286;9.900;2022-10-16T14:08:58;26.40;64.50
47805;DHT22;33568;45.286;9.900;2022-10-16T14:11:25;26.50;64.50
47805;DHT22;33568;45.286;9.900;2022-10-16T14:13:53;26.40;64.40
47805;DHT22;33568;45.286;9.900;2022-10-16T14:16:26;26.50;64.50
47805;DHT22;33568;45.286;9.900;2022-10-16T14:19:04;26.40;64.90
47805;DHT22;33568;45.286;9.900;2022-10-16T14:21:33;26.40;64.30
47805;DHT22;33568;45.286;9.900;2022-10-16T14:24:14;26.50;64.20
47805;DHT22;33568;45.286;9.900;2022-10-16T14:26:48;26.40;64.80
47805;DHT22;33568;45.286;9.900;2022-10-16T14:29:19;26.40;64.70
47805;DHT22;33568;45.286;9.900;2022-10-16T14:32:03;26.30;64.20
47805;DHT22;33568;45.286;9.900;2022-10-16T14:34:35;26.30;63.50
47805;DHT22;33568;45.286;9.900;2022-10-16T14:39:41;26.20;64.60
47805;DHT22;33568;45.286;9.900;2022-10-16T14:42:18;26.20;65.20
47805;DHT22;33568;45.286;9.900;2022-10-16T14:44:46;26.20;66.00
47805;DHT22;33568;45.286;9.900;2022-10-16T14:47:15;26.20;65.60
47805;DHT22;33568;45.286;9.900;2022-10-16T14:49:43;26.10;65.00
47805;DHT22;33568;45.286;9.900;2022-10-16T14:52:12;26.00;64.90
47805;DHT22;33568;45.286;9.900;2022-10-16T14:54:39;26.00;65.00
47805;DHT22;33568;45.286;9.900;2022-10-16T14:57:16;26.00;65.20
47805;DHT22;33568;45.286;9.900;2022-10-16T14:59:43;26.00;65.20
47805;DHT22;33568;45.286;9.900;2022-10-16T15:04:48;25.90;64.40
47805;DHT22;33568;45.286;9.900;2022-10-16T15:07:15;25.90;64.80
47805;DHT22;33568;45.286;9.900;2022-10-16T15:09:42;25.80;64.60
47805;DHT22;33568;45.286;9.900;2022-10-16T15:12:08;25.80;64.60
47805;DHT22;33568;45.286;9.900;2022-10-16T15:14:34;25.80;64.70
47805;DHT22;33568;45.286;9.900;2022-10-16T15:17:02;25.80;65.40
47805;DHT22;33568;45.286;9.900;2022-10-16T15:19:28;25.80;65.50
47805;DHT22;33568;45.286;9.900;2022-10-16T15:21:55;25.80;65.50
47805;DHT22;33568;45.286;9.900;2022-10-16T15:24:22;25.80;65.50
47805;DHT22;33568;45.286;9.900;2022-10-16T15:26:48;25.70;65.30
47805;DHT22;33568;45.286;9.900;2022-10-16T15:29:15;25.70;65.50
47805;DHT22;33568;45.286;9.900;2022-10-16T15:31:42;25.70;65.70
47805;DHT22;33568;45.286;9.900;2022-10-16T15:34:09;25.70;65.90
47805;DHT22;33568;45.286;9.900;2022-10-16T15:36:37;25.60;66.10
47805;DHT22;33568;45.286;9.900;2022-10-16T15:39:05;25.60;66.20
47805;DHT22;33568;45.286;9.900;2022-10-16T15:41:36;25.50;66.30
47805;DHT22;33568;45.286;9.900;2022-10-16T15:44:03;25.50;66.40
47805;DHT22;33568;45.286;9.900;2022-10-16T15:46:30;25.50;66.60
47805;DHT22;33568;45.286;9.900;2022-10-16T15:48:58;25.40;66.80
47805;DHT22;33568;45.286;9.900;2022-10-16T15:51:25;25.40;67.00
47805;DHT22;33568;45.286;9.900;2022-10-16T15:53:58;25.30;67.10
47805;DHT22;33568;45.286;9.900;2022-10-16T15:56:28;25.30;67.10
47805;DHT22;33568;45.286;9.900;2022-10-16T15:58:55;25.20;67.20
47805;DHT22;33568;45.286;9.900;2022-10-16T16:01:21;25.20;67.50
47805;DHT22;33568;45.286;9.900;2022-10-16T16:03:48;25.10;67.70
47805;DHT22;33568;45.286;9.900;2022-10-16T16:06:18;25.10;68.20
47805;DHT22;33568;45.286;9.900;2022-10-16T16:08:44;25.10;68.70
47805;DHT22;33568;45.286;9.900;2022-10-16T16:11:13;25.00;69.00
47805;DHT22;33568;45.286;9.900;2022-10-16T16:13:40;24.90;69.60
47805;DHT22;33568;45.286;9.900;2022-10-16T16:16:08;24.90;69.90
47805;DHT22;33568;45.286;9.900;2022-10-16T16:18:35;24.80;70.00
47805;DHT22;33568;45.286;9.900;2022-10-16T16:21:02;24.70;70.00
47805;DHT22;33568;45.286;9.900;2022-10-16T16:23:29;24.60;70.30
47805;DHT22;33568;45.286;9.900;2022-10-16T16:26:07;24.60;71.00
47805;DHT22;33568;45.286;9.900;2022-10-16T16:28:36;24.50;71.40
47805;DHT22;33568;45.286;9.900;2022-10-16T16:31:03;24.50;72.00
47805;DHT22;33568;45.286;9.900;2022-10-16T16:33:30;24.40;72.40
47805;DHT22;33568;45.286;9.900;2022-10-16T16:35:58;24.40;73.00
47805;DHT22;33568;45.286;9.900;2022-10-16T16:38:25;24.30;73.40
47805;DHT22;33568;45.286;9.900;2022-10-16T16:40:52;24.30;73.80
47805;DHT22;33568;45.286;9.900;2022-10-16T16:43:19;24.20;74.10
47805;DHT22;33568;45.286;9.900;2022-10-16T16:45:45;24.20;74.50
47805;DHT22;33568;45.286;9.900;2022-10-16T16:48:11;24.10;74.70
47805;DHT22;33568;45.286;9.900;2022-10-16T16:50:38;24.00;75.10
47805;DHT22;33568;45.286;9.900;2022-10-16T16:53:04;24.00;75.40
47805;DHT22;33568;45.286;9.900;2022-10-16T16:55:32;24.00;75.70
47805;DHT22;33568;45.286;9.900;2022-10-16T16:57:59;23.90;76.00
47805;DHT22;33568;45.286;9.900;2022-10-16T17:00:26;23.90;76.30
47805;DHT22;33568;45.286;9.900;2022-10-16T17:02:52;23.90;76.50
47805;DHT22;33568;45.286;9.900;2022-10-16T17:05:18;23.80;76.80
47805;DHT22;33568;45.286;9.900;2022-10-16T17:07:45;23.70;77.10
47805;DHT22;33568;45.286;9.900;2022-10-16T17:10:11;23.70;77.20
47805;DHT22;33568;45.286;9.900;2022-10-16T17:12:38;23.60;77.40
47805;DHT22;33568;45.286;9.900;2022-10-16T17:15:04;23.60;77.50
47805;DHT22;33568;45.286;9.900;2022-10-16T17:17:31;23.60;77.70
47805;DHT22;33568;45.286;9.900;2022-10-16T17:19:57;23.60;77.80
47805;DHT22;33568;45.286;9.900;2022-10-16T17:22:23;23.50;78.00
47805;DHT22;33568;45.286;9.900;2022-10-16T17:24:50;23.50;78.10
47805;DHT22;33568;45.286;9.900;2022-10-16T17:27:18;23.50;78.30
47805;DHT22;33568;45.286;9.900;2022-10-16T17:29:44;23.40;78.40
47805;DHT22;33568;45.286;9.900;2022-10-16T17:32:11;23.40;79.20
47805;DHT22;33568;45.286;9.900;2022-10-16T17:34:37;23.40;78.80
47805;DHT22;33568;45.286;9.900;2022-10-16T17:37:04;23.40;79.00
47805;DHT22;33568;45.286;9.900;2022-10-16T17:39:30;23.40;79.20
47805;DHT22;33568;45.286;9.900;2022-10-16T17:41:56;23.30;79.30
47805;DHT22;33568;45.286;9.900;2022-10-16T17:44:23;23.30;79.50